Time;durP1;ratioP1;P1;durP2;ratioP2;P2;SDS_P1;SDS_P2;PMS_P1;PMS_P2;Temp;Humidity;BMP_temperature;BMP_pressure;BME280_temperature;BME280_humidity;BME280_pressure;Samples;Min_cycle;Max_cycle;Signal;HPM_P1;HPM_P2
2022/08/28 00:00:39;;;;;;;3.87;3.67;;;27.40;62.10;;;;;;5043547;28;20550;-76
2022/08/28 00:03:09;;;;;;;4.20;3.90;;;27.40;62.10;;;;;;5047009;28;20445;-77
2022/08/28 00:05:38;;;;;;;3.70;3.50;;;27.40;62.10;;;;;;5053484;28;20908;-75
2022/08/28 00:08:08;;;;;;;3.53;3.33;;;27.40;62.10;;;;;;5055897;28;20805;-76
2022/08/28 00:10:38;;;;;;;3.70;3.50;;;27.40;62.10;;;;;;5055405;28;20470;-75
2022/08/28 00:13:08;;;;;;;3.40;3.20;;;27.40;62.10;;;;;;5054865;28;20445;-77
2022/08/28 00:15:39;;;;;;;3.73;3.43;;;27.40;62.10;;;;;;5055088;28;20428;-75
2022/08/28 00:18:08;;;;;;;3.90;3.60;;;27.40;62.10;;;;;;5035116;28;20518;-76
2022/08/28 00:20:38;;;;;;;3.70;3.50;;;27.40;62.10;;;;;;5067798;28;20940;-75
2022/08/28 00:23:07;;;;;;;3.83;3.63;;;27.40;62.10;;;;;;5075606;28;20956;-74
2022/08/28 00:25:36;;;;;;;3.60;3.40;;;27.40;62.10;;;;;;5075167;28;20466;-75
2022/08/28 00:28:06;;;;;;;3.73;3.53;;;27.40;62.10;;;;;;5069468;28;20454;-74
2022/08/28 00:30:38;;;;;;;3.83;3.60;;;27.40;62.10;;;;;;5050710;28;20459;-74
2022/08/28 00:33:12;;;;;;;3.57;3.37;;;27.40;62.10;;;;;;5049430;28;20481;-76
2022/08/28 00:35:42;;;;;;;3.63;3.43;;;27.40;62.10;;;;;;5053390;28;20446;-75
2022/08/28 00:38:12;;;;;;;4.10;3.80;;;27.40;62.10;;;;;;5060505;28;20501;-74
2022/08/28 00:40:44;;;;;;;3.47;3.27;;;27.40;62.10;;;;;;5074707;28;20423;-74
2022/08/28 00:43:25;;;;;;;4.10;3.90;;;27.40;62.20;;;;;;5072911;28;20797;-75
2022/08/28 00:45:53;;;;;;;3.60;3.40;;;27.40;62.20;;;;;;5040703;28;20502;-74
2022/08/28 00:48:22;;;;;;;3.47;3.27;;;27.40;62.20;;;;;;5048234;28;20478;-75
2022/08/28 00:53:36;;;;;;;4.47;4.17;;;27.40;62.20;;;;;;5041804;28;20537;-75
2022/08/28 00:56:10;;;;;;;4.27;3.97;;;27.40;62.20;;;;;;5037015;28;20424;-75
2022/08/28 00:58:44;;;;;;;3.63;3.43;;;27.40;62.20;;;;;;5054861;28;20897;-75
2022/08/28 01:01:13;;;;;;;3.20;3.10;;;27.40;62.20;;;;;;5055828;28;20779;-75
2022/08/28 01:03:44;;;;;;;3.20;3.00;;;27.40;62.20;;;;;;5055643;28;20482;-75
2022/08/28 01:06:14;;;;;;;3.70;3.50;;;27.40;62.20;;;;;;5054693;28;20448;-74
2022/08/28 01:08:45;;;;;;;3.90;3.67;;;27.40;62.30;;;;;;5054133;28;20439;-74
2022/08/28 01:11:19;;;;;;;3.77;3.57;;;27.40;62.30;;;;;;5064911;28;20476;-75
2022/08/28 01:13:50;;;;;;;4.63;4.27;;;27.30;62.30;;;;;;5074123;28;20513;-76
2022/08/28 01:16:21;;;;;;;3.47;3.27;;;27.40;62.30;;;;;;5073624;28;20470;-75
2022/08/28 01:18:59;;;;;;;4.00;3.80;;;27.30;62.20;;;;;;5073728;28;20445;-74
2022/08/28 01:21:30;;;;;;;3.83;3.53;;;27.30;62.20;;;;;;5074014;28;20949;-75
2022/08/28 01:24:04;;;;;;;3.60;3.40;;;27.30;62.20;;;;;;5037302;28;20479;-75
2022/08/28 01:26:32;;;;;;;3.97;3.73;;;27.30;62.30;;;;;;5037659;28;20443;-74
2022/08/28 01:29:01;;;;;;;3.80;3.57;;;27.30;62.30;;;;;;5050631;28;20551;-75
2022/08/28 01:31:40;;;;;;;3.17;2.97;;;27.30;62.30;;;;;;5052093;28;20478;-75
2022/08/28 01:34:11;;;;;;;3.80;3.60;;;27.30;62.30;;;;;;5033501;28;20436;-74
2022/08/28 01:36:40;;;;;;;3.30;3.10;;;27.30;62.30;;;;;;5049193;28;20537;-75
2022/08/28 01:39:13;;;;;;;3.73;3.53;;;27.30;62.30;;;;;;5043502;28;20479;-74
2022/08/28 01:41:44;;;;;;;4.00;3.80;;;27.30;62.30;;;;;;5033793;28;20498;-75
2022/08/28 01:44:14;;;;;;;3.70;3.50;;;27.30;62.30;;;;;;5069877;28;20480;-74
2022/08/28 01:46:45;;;;;;;4.10;3.80;;;27.30;62.30;;;;;;5073281;28;20819;-75
2022/08/28 01:49:14;;;;;;;3.80;3.60;;;27.30;62.30;;;;;;5073217;28;20848;-75
2022/08/28 01:51:42;;;;;;;3.90;3.70;;;27.30;62.30;;;;;;5071030;28;20854;-74
2022/08/28 01:54:13;;;;;;;3.63;3.43;;;27.30;62.40;;;;;;5073808;28;20436;-75
2022/08/28 01:56:43;;;;;;;3.90;3.63;;;27.30;62.40;;;;;;5058969;28;20479;-75
2022/08/28 01:59:13;;;;;;;3.83;3.63;;;27.30;62.40;;;;;;5040673;28;20452;-75
2022/08/28 02:01:42;;;;;;;4.00;3.70;;;27.30;62.40;;;;;;5072659;28;20446;-75
2022/08/28 02:04:11;;;;;;;3.70;3.47;;;27.30;62.40;;;;;;5041511;28;20483;-74
2022/08/28 02:06:40;;;;;;;3.50;3.30;;;27.30;62.40;;;;;;5036139;28;20513;-75
2022/08/28 02:09:10;;;;;;;3.53;3.33;;;27.30;62.40;;;;;;5063867;28;20950;-75
2022/08/28 02:11:43;;;;;;;3.80;3.50;;;27.30;62.40;;;;;;5073169;28;20461;-74
2022/08/28 02:14:14;;;;;;;3.37;3.17;;;27.30;62.40;;;;;;5073187;28;20483;-75
2022/08/28 02:16:42;;;;;;;3.20;3.00;;;27.30;62.40;;;;;;5056125;28;20485;-74
2022/08/28 02:19:11;;;;;;;3.90;3.70;;;27.30;62.40;;;;;;5048793;28;20491;-75
2022/08/28 02:21:40;;;;;;;3.80;3.60;;;27.30;62.40;;;;;;5053203;28;20515;-75
2022/08/28 02:24:08;;;;;;;4.23;3.93;;;27.30;62.40;;;;;;5051886;28;20466;-76
2022/08/28 02:26:37;;;;;;;3.63;3.43;;;27.30;62.40;;;;;;5036020;28;20506;-75
2022/08/28 02:29:06;;;;;;;3.30;3.10;;;27.30;62.40;;;;;;5035472;28;20496;-75
2022/08/28 02:31:34;;;;;;;3.47;3.27;;;27.30;62.40;;;;;;5036015;28;20518;-75
2022/08/28 02:34:04;;;;;;;3.53;3.33;;;27.30;62.40;;;;;;5032848;28;20451;-74
2022/08/28 02:36:33;;;;;;;3.80;3.60;;;27.30;62.40;;;;;;5070603;28;20471;-75
2022/08/28 02:39:01;;;;;;;4.87;4.47;;;27.20;62.40;;;;;;5072684;28;20515;-75
2022/08/28 02:41:29;;;;;;;3.83;3.63;;;27.20;62.40;;;;;;5072616;28;20433;-75
2022/08/28 02:43:57;;;;;;;4.00;3.80;;;27.30;62.40;;;;;;5072801;28;20438;-77
2022/08/28 02:46:27;;;;;;;4.10;3.90;;;27.30;62.40;;;;;;5054928;28;20503;-74
2022/08/28 02:48:55;;;;;;;4.00;3.70;;;27.30;62.40;;;;;;5043704;28;20531;-74
2022/08/28 02:51:24;;;;;;;3.67;3.47;;;27.30;62.40;;;;;;5052533;28;20590;-74
2022/08/28 02:53:52;;;;;;;3.60;3.40;;;27.30;62.40;;;;;;5052153;28;20518;-75
2022/08/28 02:56:20;;;;;;;3.40;3.20;;;27.20;62.40;;;;;;5052344;28;20474;-75
2022/08/28 02:58:48;;;;;;;3.30;3.10;;;27.30;62.40;;;;;;5044125;28;20490;-76
2022/08/28 03:01:17;;;;;;;4.00;3.70;;;27.20;62.40;;;;;;5071735;28;20457;-75
2022/08/28 03:03:46;;;;;;;3.20;3.00;;;27.20;62.40;;;;;;5072445;28;20472;-75
2022/08/28 03:06:15;;;;;;;3.60;3.30;;;27.20;62.40;;;;;;5071980;28;20425;-74
2022/08/28 03:08:43;;;;;;;3.80;3.60;;;27.30;62.40;;;;;;5065624;28;20439;-75
2022/08/28 03:11:12;;;;;;;4.00;3.80;;;27.30;62.40;;;;;;5032407;28;20499;-75
2022/08/28 03:13:41;;;;;;;3.67;3.47;;;27.30;62.40;;;;;;5032144;28;20501;-75
2022/08/28 03:16:09;;;;;;;3.80;3.60;;;27.30;62.40;;;;;;5042878;28;20537;-76
2022/08/28 03:18:37;;;;;;;3.60;3.40;;;27.20;62.40;;;;;;5055421;28;20940;-75
2022/08/28 03:21:11;;;;;;;4.07;3.77;;;27.20;62.40;;;;;;5032647;28;20486;-75
2022/08/28 03:23:39;;;;;;;3.37;3.17;;;27.20;62.40;;;;;;5053128;28;20461;-75
2022/08/28 03:26:10;;;;;;;3.07;2.87;;;27.20;62.40;;;;;;5072268;28;20445;-75
2022/08/28 03:28:40;;;;;;;3.53;3.33;;;27.20;62.40;;;;;;5067842;28;20550;-75
2022/08/28 03:31:09;;;;;;;3.30;3.10;;;27.20;62.40;;;;;;5050053;28;20531;-78
2022/08/28 03:33:38;;;;;;;3.50;3.20;;;27.20;62.40;;;;;;5051877;28;20851;-76
2022/08/28 03:36:12;;;;;;;4.03;3.63;;;27.20;62.40;;;;;;5033976;28;20442;-75
2022/08/28 03:38:41;;;;;;;3.60;3.40;;;27.20;62.40;;;;;;5048977;28;20754;-74
2022/08/28 03:41:11;;;;;;;3.83;3.60;;;27.20;62.40;;;;;;5075974;28;20477;-77
2022/08/28 03:43:40;;;;;;;3.30;3.10;;;27.20;62.40;;;;;;5075919;28;20815;-75
2022/08/28 03:46:12;;;;;;;3.20;3.00;;;27.20;62.40;;;;;;5062676;28;20464;-76
2022/08/28 03:48:41;;;;;;;3.90;3.60;;;27.20;62.40;;;;;;5043039;28;20508;-75
2022/08/28 03:51:17;;;;;;;3.50;3.30;;;27.20;62.40;;;;;;5042432;28;20481;-75
2022/08/28 03:53:46;;;;;;;4.03;3.83;;;27.20;62.40;;;;;;5059552;28;20528;-76
2022/08/28 03:56:17;;;;;;;3.20;3.03;;;27.20;62.50;;;;;;5075923;28;20469;-75
2022/08/28 03:58:45;;;;;;;4.13;3.83;;;27.20;62.40;;;;;;5053299;28;20443;-74
2022/08/28 04:01:14;;;;;;;3.43;3.23;;;27.20;62.40;;;;;;5061813;28;20470;-75
2022/08/28 04:03:43;;;;;;;4.03;3.80;;;27.20;62.40;;;;;;5075030;28;20959;-74
2022/08/28 04:06:13;;;;;;;4.07;3.77;;;27.20;62.40;;;;;;5067075;28;20824;-75
2022/08/28 04:08:41;;;;;;;4.10;3.80;;;27.20;62.50;;;;;;5075725;28;20476;-74
2022/08/28 04:11:10;;;;;;;3.47;3.27;;;27.20;62.50;;;;;;5075363;28;20521;-75
2022/08/28 04:13:38;;;;;;;3.20;3.00;;;27.20;62.50;;;;;;5075655;28;20868;-75
2022/08/28 04:16:09;;;;;;;3.27;3.07;;;27.20;62.50;;;;;;5075466;28;20449;-74
2022/08/28 04:18:40;;;;;;;3.73;3.53;;;27.20;62.50;;;;;;5057261;28;20453;-76
2022/08/28 04:21:10;;;;;;;3.53;3.33;;;27.20;62.50;;;;;;5055685;28;20458;-75
2022/08/28 04:23:42;;;;;;;3.27;3.07;;;27.20;62.50;;;;;;5055180;28;21047;-75
2022/08/28 04:26:12;;;;;;;3.27;3.07;;;27.20;62.50;;;;;;5054972;28;20921;-75
2022/08/28 04:28:40;;;;;;;3.60;3.30;;;27.20;62.50;;;;;;5055106;28;20489;-75
2022/08/28 04:31:08;;;;;;;3.67;3.47;;;27.20;62.50;;;;;;5048486;28;21013;-78
2022/08/28 04:33:38;;;;;;;3.57;3.27;;;27.20;62.50;;;;;;5054312;28;20491;-74
2022/08/28 04:36:09;;;;;;;4.07;3.77;;;27.20;62.50;;;;;;5051059;28;20455;-74
2022/08/28 04:38:40;;;;;;;3.47;3.27;;;27.20;62.50;;;;;;5061492;28;20443;-75
2022/08/28 04:41:13;;;;;;;3.57;3.37;;;27.20;62.50;;;;;;5034754;28;20438;-76
2022/08/28 04:43:42;;;;;;;4.00;3.80;;;27.20;62.50;;;;;;5034901;28;20465;-74
2022/08/28 04:46:12;;;;;;;3.20;3.00;;;27.20;62.50;;;;;;5071959;28;20836;-76
2022/08/28 04:48:41;;;;;;;3.37;3.17;;;27.20;62.50;;;;;;5051510;28;20765;-75
2022/08/28 04:51:13;;;;;;;3.50;3.30;;;27.20;62.50;;;;;;5062368;28;20759;-76
2022/08/28 04:53:43;;;;;;;3.20;3.00;;;27.20;62.50;;;;;;5063207;28;20510;-75
2022/08/28 04:56:14;;;;;;;3.40;3.20;;;27.20;62.50;;;;;;5051703;28;20469;-74
2022/08/28 04:58:43;;;;;;;3.23;3.03;;;27.20;62.50;;;;;;5054660;28;20469;-75
2022/08/28 05:01:14;;;;;;;3.53;3.23;;;27.20;62.50;;;;;;5073783;28;20835;-76
2022/08/28 05:03:42;;;;;;;3.60;3.40;;;27.20;62.50;;;;;;5074106;28;20530;-74
2022/08/28 05:06:12;;;;;;;4.10;3.80;;;27.20;62.50;;;;;;5073953;28;20437;-75
2022/08/28 05:08:42;;;;;;;3.70;3.50;;;27.20;62.50;;;;;;5074367;28;20954;-75
2022/08/28 05:11:13;;;;;;;3.80;3.50;;;27.20;62.50;;;;;;5059121;28;20469;-74
2022/08/28 05:14:02;;;;;;;3.50;3.30;;;27.20;62.50;;;;;;5053655;28;20480;-74
2022/08/28 05:16:33;;;;;;;3.83;3.60;;;27.20;62.50;;;;;;5054108;28;21105;-75
2022/08/28 05:19:02;;;;;;;3.77;3.47;;;27.20;62.50;;;;;;5073839;28;20440;-75
2022/08/28 05:21:30;;;;;;;3.60;3.40;;;27.20;62.50;;;;;;5073778;28;20803;-75
2022/08/28 05:24:00;;;;;;;3.30;3.10;;;27.20;62.50;;;;;;5034511;28;20501;-75
2022/08/28 05:26:29;;;;;;;3.20;3.00;;;27.20;62.50;;;;;;5060167;28;20501;-75
2022/08/28 05:28:58;;;;;;;3.60;3.40;;;27.20;62.50;;;;;;5074145;28;20483;-74
2022/08/28 05:31:28;;;;;;;4.17;3.87;;;27.20;62.50;;;;;;5068500;28;20908;-75
2022/08/28 05:33:58;;;;;;;3.93;3.63;;;27.20;62.50;;;;;;5053477;28;20467;-75
2022/08/28 05:36:28;;;;;;;3.97;3.77;;;27.20;62.50;;;;;;5054167;28;20437;-75
2022/08/28 05:39:04;;;;;;;3.67;3.47;;;27.10;62.50;;;;;;5053406;28;20777;-75
2022/08/28 05:41:33;;;;;;;3.50;3.30;;;27.20;62.50;;;;;;5053855;28;20457;-74
2022/08/28 05:44:04;;;;;;;3.47;3.27;;;27.20;62.50;;;;;;5064089;28;20547;-75
2022/08/28 05:46:34;;;;;;;2.67;2.53;;;27.10;62.50;;;;;;5034278;28;20583;-75
2022/08/28 05:49:02;;;;;;;3.50;3.30;;;27.20;62.50;;;;;;5053534;28;20889;-74
2022/08/28 05:51:39;;;;;;;3.70;3.50;;;27.20;62.50;;;;;;5050173;28;20463;-75
2022/08/28 05:54:08;;;;;;;3.37;3.17;;;27.20;62.50;;;;;;5064364;28;20466;-75
2022/08/28 05:56:38;;;;;;;3.80;3.60;;;27.10;62.50;;;;;;5053210;28;20498;-75
2022/08/28 05:59:08;;;;;;;3.80;3.50;;;27.10;62.50;;;;;;5057843;28;20453;-75
2022/08/28 06:01:40;;;;;;;3.30;3.10;;;27.20;62.50;;;;;;5073042;28;20433;-75
2022/08/28 06:04:11;;;;;;;3.87;3.67;;;27.10;62.50;;;;;;5072966;28;20478;-75
2022/08/28 06:06:40;;;;;;;3.30;3.10;;;27.10;62.50;;;;;;5072853;28;20978;-75
2022/08/28 06:09:12;;;;;;;3.10;2.90;;;27.20;62.50;;;;;;5073588;28;20763;-75
2022/08/28 06:11:41;;;;;;;3.90;3.70;;;27.10;62.50;;;;;;5059151;28;20485;-75
2022/08/28 06:14:15;;;;;;;3.40;3.20;;;27.20;62.50;;;;;;5051993;28;20971;-75
2022/08/28 06:16:48;;;;;;;3.67;3.47;;;27.20;62.50;;;;;;5053821;28;20526;-75
2022/08/28 06:19:17;;;;;;;3.90;3.60;;;27.20;62.50;;;;;;5061304;28;20472;-75
2022/08/28 06:21:46;;;;;;;4.00;3.70;;;27.20;62.50;;;;;;5067980;28;20481;-75
2022/08/28 06:24:16;;;;;;;4.30;4.10;;;27.20;62.50;;;;;;5052596;28;20454;-75
2022/08/28 06:26:45;;;;;;;3.90;3.70;;;27.20;62.50;;;;;;5036011;28;20443;-75
2022/08/28 06:29:18;;;;;;;3.80;3.60;;;27.20;62.50;;;;;;5033015;28;20478;-75
2022/08/28 06:31:53;;;;;;;3.90;3.70;;;27.20;62.50;;;;;;5032781;28;20432;-74
2022/08/28 06:34:22;;;;;;;3.93;3.73;;;27.20;62.50;;;;;;5036936;28;20537;-75
2022/08/28 06:36:50;;;;;;;4.30;4.00;;;27.20;62.50;;;;;;5032776;28;20455;-75
2022/08/28 06:39:23;;;;;;;3.63;3.43;;;27.20;62.40;;;;;;5032862;28;20496;-74
2022/08/28 06:41:52;;;;;;;3.43;3.23;;;27.20;62.40;;;;;;5032632;28;20427;-75
2022/08/28 06:44:22;;;;;;;3.80;3.60;;;27.20;62.40;;;;;;5039603;28;20920;-75
2022/08/28 06:46:52;;;;;;;3.40;3.20;;;27.20;62.40;;;;;;5032902;28;20860;-74
2022/08/28 06:49:21;;;;;;;4.20;3.90;;;27.20;62.40;;;;;;5032559;28;20427;-75
2022/08/28 06:51:49;;;;;;;4.17;3.87;;;27.20;62.40;;;;;;5032285;28;20450;-75
2022/08/28 06:54:18;;;;;;;3.43;3.23;;;27.20;62.40;;;;;;5035723;28;20565;-75
2022/08/28 06:56:52;;;;;;;3.27;3.07;;;27.20;62.40;;;;;;5043840;28;20463;-75
2022/08/28 06:59:21;;;;;;;3.67;3.47;;;27.20;62.40;;;;;;5032012;28;20437;-75
2022/08/28 07:01:53;;;;;;;3.80;3.60;;;27.20;62.30;;;;;;5067904;28;20830;-75
2022/08/28 07:04:21;;;;;;;3.87;3.67;;;27.20;62.30;;;;;;5071598;28;20479;-75
2022/08/28 07:06:49;;;;;;;3.83;3.53;;;27.20;62.30;;;;;;5068213;28;20433;-75
2022/08/28 07:09:22;;;;;;;4.17;3.87;;;27.20;62.30;;;;;;5032478;28;20438;-75
2022/08/28 07:11:52;;;;;;;3.67;3.47;;;27.20;62.30;;;;;;5052908;28;20545;-76
2022/08/28 07:14:20;;;;;;;3.57;3.37;;;27.20;62.30;;;;;;5051081;28;20529;-75
2022/08/28 07:16:48;;;;;;;4.30;4.00;;;27.20;62.30;;;;;;5051362;28;20954;-75
2022/08/28 07:19:19;;;;;;;4.43;4.13;;;27.20;62.30;;;;;;5051538;28;20434;-75
2022/08/28 07:21:47;;;;;;;3.87;3.67;;;27.20;62.30;;;;;;5062578;28;20511;-74
2022/08/28 07:24:16;;;;;;;4.00;3.70;;;27.20;62.30;;;;;;5066669;28;20479;-75
2022/08/28 07:26:46;;;;;;;3.30;3.10;;;27.20;62.30;;;;;;5040800;28;20499;-76
2022/08/28 07:29:17;;;;;;;3.90;3.60;;;27.20;62.30;;;;;;5072338;28;20844;-75
2022/08/28 07:31:48;;;;;;;4.07;3.87;;;27.20;62.30;;;;;;5071451;28;20416;-75
2022/08/28 07:34:20;;;;;;;3.80;3.50;;;27.20;62.30;;;;;;5071733;28;20498;-75
2022/08/28 07:36:51;;;;;;;3.40;3.20;;;27.30;62.30;;;;;;5047402;28;20497;-75
2022/08/28 07:39:19;;;;;;;3.80;3.50;;;27.30;62.30;;;;;;5044967;28;20899;-75
2022/08/28 07:41:49;;;;;;;3.63;3.43;;;27.30;62.20;;;;;;5053588;28;20450;-75
2022/08/28 07:47:06;;;;;;;4.10;3.83;;;27.30;62.20;;;;;;5035323;28;20508;-76
2022/08/28 07:49:36;;;;;;;3.60;3.40;;;27.20;62.20;;;;;;5039047;28;20455;-75
2022/08/28 07:52:04;;;;;;;3.20;3.00;;;27.30;62.20;;;;;;5038643;28;20479;-74
2022/08/28 07:54:34;;;;;;;3.70;3.50;;;27.30;62.20;;;;;;5038375;28;20470;-75
2022/08/28 07:57:03;;;;;;;3.80;3.60;;;27.30;62.20;;;;;;5032282;28;20470;-75
2022/08/28 07:59:33;;;;;;;3.60;3.40;;;27.30;62.20;;;;;;5045569;28;20450;-75
2022/08/28 08:02:05;;;;;;;4.00;3.77;;;27.20;62.20;;;;;;5031483;28;20481;-74
2022/08/28 08:04:33;;;;;;;3.30;3.10;;;27.20;62.20;;;;;;5031381;28;20578;-76
2022/08/28 08:07:03;;;;;;;4.10;3.80;;;27.30;62.20;;;;;;5032519;28;20463;-75
2022/08/28 08:09:31;;;;;;;3.60;3.40;;;27.30;62.20;;;;;;5047520;28;20446;-75
2022/08/28 08:12:00;;;;;;;3.50;3.30;;;27.30;62.20;;;;;;5071290;28;20957;-75
2022/08/28 08:14:28;;;;;;;3.97;3.67;;;27.30;62.20;;;;;;5060380;28;20499;-75
2022/08/28 08:17:01;;;;;;;3.87;3.60;;;27.30;62.20;;;;;;5050902;28;20508;-74
2022/08/28 08:19:30;;;;;;;4.43;4.03;;;27.30;62.20;;;;;;5051113;28;20439;-75
2022/08/28 08:21:58;;;;;;;3.83;3.53;;;27.20;62.20;;;;;;5041278;28;20455;-75
2022/08/28 08:24:29;;;;;;;4.20;3.90;;;27.20;62.20;;;;;;5041446;28;20444;-74
2022/08/28 08:26:59;;;;;;;3.70;3.50;;;27.30;62.20;;;;;;5037089;28;20490;-75
2022/08/28 08:29:31;;;;;;;4.30;4.00;;;27.30;62.20;;;;;;5063654;28;20504;-75
2022/08/28 08:32:04;;;;;;;3.97;3.77;;;27.30;62.20;;;;;;5056042;28;20476;-75
2022/08/28 08:34:35;;;;;;;4.20;3.90;;;27.30;62.10;;;;;;5055071;28;20491;-74
2022/08/28 08:37:04;;;;;;;3.43;3.23;;;27.30;62.10;;;;;;5074821;28;20835;-74
2022/08/28 08:39:33;;;;;;;3.83;3.63;;;27.30;62.10;;;;;;5075159;28;20441;-75
2022/08/28 08:42:03;;;;;;;4.07;3.77;;;27.30;62.00;;;;;;5074929;28;20499;-76
2022/08/28 08:44:34;;;;;;;4.07;3.80;;;27.30;62.00;;;;;;5059943;28;20513;-75
2022/08/28 08:47:16;;;;;;;3.43;3.23;;;27.30;62.00;;;;;;5054556;28;20468;-76
2022/08/28 08:49:52;;;;;;;4.17;3.87;;;27.40;62.00;;;;;;5045641;28;20439;-75
2022/08/28 08:52:31;;;;;;;4.17;3.97;;;27.40;61.90;;;;;;5054899;28;20437;-75
2022/08/28 08:55:08;;;;;;;3.87;3.63;;;27.40;61.90;;;;;;5053853;28;20938;-74
2022/08/28 08:57:38;;;;;;;3.60;3.30;;;27.40;61.90;;;;;;5047767;28;20442;-78
2022/08/28 09:00:08;;;;;;;3.70;3.50;;;27.40;61.90;;;;;;5034380;28;20558;-74
2022/08/28 09:02:50;;;;;;;3.60;3.40;;;27.40;61.80;;;;;;5033904;28;20803;-75
2022/08/28 09:05:22;;;;;;;3.90;3.70;;;27.40;61.90;;;;;;5049563;28;20446;-75
2022/08/28 09:07:56;;;;;;;3.80;3.50;;;27.50;61.80;;;;;;5054303;28;20469;-75
2022/08/28 09:10:32;;;;;;;3.83;3.63;;;27.50;61.90;;;;;;5054016;28;20430;-74
2022/08/28 09:13:06;;;;;;;4.17;3.90;;;27.50;61.80;;;;;;5038988;28;20547;-76
2022/08/28 09:15:40;;;;;;;3.47;3.27;;;27.50;61.80;;;;;;5070570;28;20500;-75
2022/08/28 09:18:20;;;;;;;3.43;3.23;;;27.50;61.80;;;;;;5076964;28;20525;-75
2022/08/28 09:20:50;;;;;;;3.80;3.60;;;27.50;61.80;;;;;;5050874;28;20446;-75
2022/08/28 09:23:18;;;;;;;4.20;4.00;;;27.50;61.70;;;;;;5060191;28;20458;-75
2022/08/28 09:25:54;;;;;;;3.67;3.43;;;27.60;61.70;;;;;;5038054;28;20487;-75
2022/08/28 09:28:30;;;;;;;4.00;3.70;;;27.60;61.60;;;;;;5044666;28;20476;-74
2022/08/28 09:31:05;;;;;;;3.67;3.47;;;27.60;61.60;;;;;;5054053;28;20427;-75
2022/08/28 09:33:42;;;;;;;3.43;3.23;;;27.60;61.50;;;;;;5048312;28;21096;-75
2022/08/28 09:36:23;;;;;;;3.77;3.57;;;27.60;61.50;;;;;;5053583;28;20522;-75
2022/08/28 09:39:13;;;;;;;3.67;3.47;;;27.60;61.50;;;;;;5072118;28;20483;-75
2022/08/28 09:44:52;;;;;;;3.70;3.50;;;27.60;61.40;;;;;;5056542;28;20529;-75
2022/08/28 09:47:40;;;;;;;3.50;3.30;;;27.60;61.40;;;;;;5069865;28;20510;-75
2022/08/28 09:50:22;;;;;;;3.50;3.30;;;27.70;61.40;;;;;;5073727;28;20448;-76
2022/08/28 09:52:52;;;;;;;3.90;3.70;;;27.70;61.40;;;;;;5070971;28;20461;-75
2022/08/28 09:55:28;;;;;;;4.00;3.70;;;27.70;61.30;;;;;;5044542;28;20491;-75
2022/08/28 09:57:56;;;;;;;4.03;3.80;;;27.70;61.30;;;;;;5073834;28;20907;-74
2022/08/28 10:00:25;;;;;;;3.87;3.57;;;27.70;61.30;;;;;;5073574;28;20456;-75
2022/08/28 10:03:00;;;;;;;4.50;4.20;;;27.70;61.30;;;;;;5072920;28;20439;-75
2022/08/28 10:05:40;;;;;;;3.53;3.33;;;27.70;61.30;;;;;;5072995;28;20861;-74
2022/08/28 10:08:20;;;;;;;3.37;3.17;;;27.70;61.30;;;;;;5071768;28;20458;-75
2022/08/28 10:10:54;;;;;;;4.00;3.70;;;27.70;61.30;;;;;;5068421;28;20474;-75
2022/08/28 10:13:29;;;;;;;3.60;3.40;;;27.60;61.40;;;;;;5044281;28;20512;-75
2022/08/28 10:16:16;;;;;;;3.43;3.23;;;27.60;61.40;;;;;;5046129;28;21373;-74
2022/08/28 10:18:53;;;;;;;4.00;3.70;;;27.60;61.40;;;;;;5052113;28;20552;-75
2022/08/28 10:21:29;;;;;;;4.07;3.77;;;27.60;61.40;;;;;;5072950;28;20515;-74
2022/08/28 10:24:18;;;;;;;3.70;3.40;;;27.60;61.40;;;;;;5066362;28;20437;-74
2022/08/28 10:27:04;;;;;;;3.87;3.67;;;27.60;61.30;;;;;;5057390;28;20931;-74
2022/08/28 10:29:47;;;;;;;3.50;3.30;;;27.60;61.40;;;;;;5061629;28;20481;-75
2022/08/28 10:32:30;;;;;;;3.80;3.60;;;27.60;61.40;;;;;;5058401;28;20453;-75
2022/08/28 10:35:05;;;;;;;3.70;3.40;;;27.50;61.50;;;;;;5058047;28;20514;-76
2022/08/28 10:37:48;;;;;;;3.60;3.40;;;27.60;61.40;;;;;;5037385;28;20453;-75
2022/08/28 10:40:23;;;;;;;3.67;3.43;;;27.60;61.40;;;;;;5072180;28;20826;-74
2022/08/28 10:42:59;;;;;;;3.63;3.33;;;27.60;61.30;;;;;;5059736;28;20527;-75
2022/08/28 10:45:29;;;;;;;3.80;3.60;;;27.60;61.30;;;;;;5031698;28;20456;-75
2022/08/28 10:48:00;;;;;;;3.90;3.70;;;27.60;61.30;;;;;;5032141;28;20484;-74
2022/08/28 10:50:33;;;;;;;3.40;3.20;;;27.70;61.30;;;;;;5031093;28;20482;-74
2022/08/28 10:53:07;;;;;;;3.00;2.80;;;27.70;61.30;;;;;;5032461;28;20417;-74
2022/08/28 10:55:42;;;;;;;3.93;3.67;;;27.70;61.30;;;;;;5050399;28;20466;-74
2022/08/28 10:58:12;;;;;;;3.73;3.53;;;27.70;61.20;;;;;;5032929;28;20459;-75
2022/08/28 11:00:55;;;;;;;3.67;3.47;;;27.70;61.10;;;;;;5052397;28;20537;-76
2022/08/28 11:03:25;;;;;;;3.50;3.30;;;27.70;61.10;;;;;;5051499;28;20526;-75
2022/08/28 11:06:10;;;;;;;4.10;3.80;;;27.70;61.00;;;;;;5034566;28;20454;-76
2022/08/28 11:08:40;;;;;;;3.40;3.20;;;27.80;61.00;;;;;;5032100;28;20439;-74
2022/08/28 11:11:14;;;;;;;3.03;2.83;;;27.80;61.00;;;;;;5032277;28;20459;-75
2022/08/28 11:13:53;;;;;;;3.93;3.67;;;27.80;60.90;;;;;;5053787;28;20486;-75
2022/08/28 11:16:24;;;;;;;3.43;3.23;;;27.80;61.00;;;;;;5048628;28;20529;-74
2022/08/28 11:19:25;;;;;;;3.33;3.13;;;27.80;60.90;;;;;;5050156;28;20541;-75
2022/08/28 11:21:57;;;;;;;3.30;3.10;;;27.80;60.90;;;;;;5068250;28;20810;-75
2022/08/28 11:27:30;;;;;;;3.43;3.23;;;27.80;60.90;;;;;;5084128;27;20552;-74
2022/08/28 11:30:34;;;;;;;3.57;3.37;;;27.90;60.80;;;;;;5068820;28;20502;-76
2022/08/28 11:33:08;;;;;;;3.00;2.80;;;27.80;60.90;;;;;;5068938;28;20929;-77
2022/08/28 11:35:50;;;;;;;3.53;3.30;;;27.90;60.80;;;;;;5069569;28;20458;-76
2022/08/28 11:39:10;;;;;;;3.33;3.13;;;27.90;60.70;;;;;;5068993;28;20502;-77
2022/08/28 11:41:40;;;;;;;4.00;3.80;;;27.90;60.50;;;;;;5068735;28;20465;-74
2022/08/28 11:44:28;;;;;;;3.73;3.53;;;27.90;60.50;;;;;;5061121;28;20468;-74
2022/08/28 11:47:36;;;;;;;3.43;3.23;;;28.00;60.50;;;;;;5068665;28;20517;-73
2022/08/28 11:50:14;;;;;;;3.10;2.90;;;28.00;60.50;;;;;;5068123;28;20454;-74
2022/08/28 11:53:12;;;;;;;4.03;3.80;;;27.90;60.50;;;;;;5064860;28;20807;-75
2022/08/28 11:56:06;;;;;;;3.50;3.30;;;28.00;60.50;;;;;;5068311;28;20465;-74
2022/08/28 11:58:41;;;;;;;3.33;3.13;;;28.00;60.50;;;;;;5048935;28;20500;-76
2022/08/28 12:01:13;;;;;;;3.73;3.53;;;28.00;60.50;;;;;;5048277;28;20524;-79
2022/08/28 12:03:44;;;;;;;3.47;3.27;;;28.00;60.50;;;;;;5048707;28;20497;-76
2022/08/28 12:06:13;;;;;;;3.70;3.50;;;28.10;60.40;;;;;;5050731;28;20514;-77
2022/08/28 12:09:09;;;;;;;3.60;3.40;;;28.10;60.40;;;;;;5068479;28;20521;-76
2022/08/28 12:11:58;;;;;;;2.97;2.87;;;28.00;60.50;;;;;;5068217;28;20493;-76
2022/08/28 12:15:01;;;;;;;3.07;2.87;;;28.00;60.50;;;;;;5067960;28;20502;-75
2022/08/28 12:17:58;;;;;;;3.33;3.13;;;28.10;60.40;;;;;;5032898;28;20473;-76
2022/08/28 12:20:50;;;;;;;3.47;3.27;;;28.10;60.50;;;;;;5044977;28;21033;-76
2022/08/28 12:23:41;;;;;;;3.73;3.53;;;28.00;60.50;;;;;;5031829;28;20498;-77
2022/08/28 12:26:18;;;;;;;4.07;3.77;;;28.00;60.50;;;;;;5050128;28;20485;-77
2022/08/28 12:28:51;;;;;;;3.17;2.97;;;28.00;60.50;;;;;;5067968;28;20433;-76
2022/08/28 12:32:11;;;;;;;3.53;3.23;;;28.00;60.50;;;;;;5067279;28;20485;-77
2022/08/28 12:34:48;;;;;;;3.70;3.50;;;28.00;60.50;;;;;;5067693;28;20912;-76
2022/08/28 12:37:36;;;;;;;3.30;3.10;;;28.00;60.50;;;;;;5061026;28;20450;-78
2022/08/28 12:40:23;;;;;;;3.57;3.37;;;28.00;60.50;;;;;;5048633;28;20488;-76
2022/08/28 12:42:55;;;;;;;3.20;3.00;;;28.00;60.50;;;;;;5054204;28;20446;-76
2022/08/28 12:45:30;;;;;;;3.40;3.20;;;28.10;60.50;;;;;;5053784;28;20453;-77
2022/08/28 12:48:02;;;;;;;3.70;3.50;;;28.00;60.50;;;;;;5054543;28;20904;-76
2022/08/28 12:50:37;;;;;;;3.37;3.17;;;28.00;60.50;;;;;;5054169;28;20465;-76
2022/08/28 12:53:07;;;;;;;3.30;3.10;;;28.00;60.50;;;;;;5051527;28;20460;-76
2022/08/28 12:55:38;;;;;;;3.20;3.03;;;28.00;60.50;;;;;;5053658;28;20446;-76
2022/08/28 12:58:12;;;;;;;3.37;3.17;;;28.00;60.70;;;;;;5054830;28;20483;-76
2022/08/28 13:00:52;;;;;;;3.93;3.73;;;28.00;60.50;;;;;;5054763;28;20441;-77
2022/08/28 13:03:20;;;;;;;3.63;3.43;;;28.00;60.50;;;;;;5054429;28;20484;-76
2022/08/28 13:05:57;;;;;;;4.00;3.80;;;27.90;60.70;;;;;;5054265;28;20440;-77
2022/08/28 13:08:26;;;;;;;3.60;3.40;;;27.90;60.70;;;;;;5054317;28;20485;-76
2022/08/28 13:10:55;;;;;;;3.40;3.20;;;27.90;60.70;;;;;;5054363;28;20510;-76
2022/08/28 13:13:32;;;;;;;3.20;3.00;;;27.90;60.70;;;;;;5053054;28;20466;-77
2022/08/28 13:16:05;;;;;;;3.30;3.10;;;27.90;60.70;;;;;;5053811;28;20716;-76
2022/08/28 13:18:46;;;;;;;4.07;3.87;;;27.90;60.70;;;;;;5052878;28;20947;-77
2022/08/28 13:21:51;;;;;;;3.17;3.00;;;27.90;60.80;;;;;;5053530;28;20453;-76
2022/08/28 13:24:42;;;;;;;3.77;3.57;;;27.90;60.80;;;;;;5053691;28;20854;-76
2022/08/28 13:27:20;;;;;;;3.57;3.37;;;27.90;60.80;;;;;;5049853;28;21002;-76
2022/08/28 13:30:01;;;;;;;3.50;3.30;;;27.90;60.90;;;;;;5053856;28;20866;-77